createdAt,value
2023-02-15T00:01:39.915Z,102372.28
2023-02-15T00:04:08.470Z,102368.53
2023-02-15T00:06:36.294Z,102369.34
2023-02-15T00:09:04.630Z,102367.53
2023-02-15T00:11:41.470Z,102362.03
2023-02-15T00:14:10.990Z,102364.63
2023-02-15T00:16:40.943Z,102360.88
2023-02-15T00:19:09.514Z,102359.09
2023-02-15T00:21:38.868Z,102347.66
2023-02-15T00:24:09.594Z,102346.72
2023-02-15T00:26:37.981Z,102357.06
2023-02-15T00:29:05.611Z,102348.13
2023-02-15T00:31:34.822Z,102354.16
2023-02-15T00:34:06.674Z,102349.72
2023-02-15T00:36:34.651Z,102352.34
2023-02-15T00:39:02.235Z,102344.28
2023-02-15T00:41:29.829Z,102341.56
2023-02-15T00:43:57.376Z,102347.63
2023-02-15T00:46:25.003Z,102348.41
2023-02-15T00:48:52.627Z,102355.25
2023-02-15T00:51:22.262Z,102346.28
2023-02-15T00:53:50.214Z,102348.69
2023-02-15T00:56:18.143Z,102344.19
2023-02-15T00:58:46.160Z,102350.91
2023-02-15T01:01:16.361Z,102337.75
2023-02-15T01:03:44.364Z,102338.44
2023-02-15T01:06:12.759Z,102333.81
2023-02-15T01:08:42.077Z,102337.09
2023-02-15T01:11:12.513Z,102343.94
2023-02-15T01:13:41.453Z,102332.47
2023-02-15T01:16:10.194Z,102327.16
2023-02-15T01:18:38.126Z,102334.09
2023-02-15T01:21:12.572Z,102329.53
2023-02-15T01:23:41.944Z,102325.94
2023-02-15T01:26:09.948Z,102327.53
2023-02-15T01:28:38.146Z,102312.56
2023-02-15T01:31:09.770Z,102316.88
2023-02-15T01:33:39.449Z,102310.66
2023-02-15T01:36:08.170Z,102306.22
2023-02-15T01:38:36.828Z,102299.28
2023-02-15T01:41:24.570Z,102303.63
2023-02-15T01:43:54.486Z,102299.09
2023-02-15T01:46:26.621Z,102297.28
2023-02-15T01:49:00.345Z,102293.69
2023-02-15T01:51:31.680Z,102281.31
2023-02-15T01:54:03.443Z,102283.81
2023-02-15T01:56:36.302Z,102288.03
2023-02-15T01:59:10.075Z,102281.00
2023-02-15T02:01:37.718Z,102280.91
2023-02-15T02:04:12.989Z,102265.94
2023-02-15T02:06:41.365Z,102266.75
2023-02-15T02:09:09.443Z,102264.94
2023-02-15T02:11:38.426Z,102263.09
2023-02-15T02:14:06.066Z,102257.00
2023-02-15T02:16:43.565Z,102263.00
2023-02-15T02:20:08.222Z,102253.50
2023-02-15T02:22:52.660Z,102261.31
2023-02-15T02:25:47.680Z,102251.66
2023-02-15T02:28:35.683Z,102257.78
2023-02-15T02:31:27.759Z,102259.50
2023-02-15T02:34:03.249Z,102248.72
2023-02-15T02:36:37.453Z,102246.94
2023-02-15T02:39:15.875Z,102251.94
2023-02-15T02:41:52.449Z,102255.25
2023-02-15T02:44:26.639Z,102241.19
2023-02-15T02:46:59.429Z,102238.56
2023-02-15T02:49:34.896Z,102228.13
2023-02-15T02:52:04.141Z,102236.78
2023-02-15T02:54:35.110Z,102233.16
2023-02-15T02:57:05.711Z,102234.63
2023-02-15T02:59:38.324Z,102225.22
2023-02-15T03:02:14.000Z,102225.03
2023-02-15T03:04:48.357Z,102219.59
2023-02-15T03:07:22.924Z,102220.28
2023-02-15T03:09:53.601Z,102231.50
2023-02-15T03:12:24.201Z,102216.66
2023-02-15T03:14:57.279Z,102215.88
2023-02-15T03:17:28.662Z,102208.72
2023-02-15T03:20:02.552Z,102212.03
2023-02-15T03:22:36.737Z,102215.31
2023-02-15T03:25:08.837Z,102210.81
2023-02-15T03:27:42.594Z,102210.81
2023-02-15T03:30:13.244Z,102208.09
2023-02-15T03:32:42.569Z,102204.47
2023-02-15T03:35:11.912Z,102200.94
2023-02-15T03:37:43.802Z,102196.66
2023-02-15T03:40:33.999Z,102197.56
2023-02-15T03:43:08.333Z,102186.22
2023-02-15T03:45:39.813Z,102180.19
2023-02-15T03:48:09.340Z,102168.88
2023-02-15T03:50:57.820Z,102178.41
2023-02-15T03:53:27.727Z,102179.19
2023-02-15T03:55:56.796Z,102182.50
2023-02-15T03:58:41.930Z,102177.31
2023-02-15T04:01:39.611Z,102183.28
2023-02-15T04:04:12.370Z,102177.97
2023-02-15T04:06:41.333Z,102176.25
2023-02-15T04:09:26.862Z,102171.06
2023-02-15T04:11:54.462Z,102166.75
2023-02-15T04:14:40.048Z,102181.59
2023-02-15T04:17:08.384Z,102162.44
2023-02-15T04:19:53.964Z,102161.78
2023-02-15T04:22:40.859Z,102163.44
2023-02-15T04:25:14.438Z,102153.94
2023-02-15T04:27:45.170Z,102156.56
2023-02-15T04:30:15.264Z,102154.84
2023-02-15T04:32:42.919Z,102156.56
2023-02-15T04:35:10.689Z,102160.06
2023-02-15T04:37:40.396Z,102158.34
2023-02-15T04:40:10.581Z,102166.16
2023-02-15T04:42:38.215Z,102158.34
2023-02-15T04:45:06.799Z,102157.66
2023-02-15T04:47:34.523Z,102156.84
2023-02-15T04:50:02.309Z,102150.75
2023-02-15T04:52:30.069Z,102150.84
2023-02-15T04:54:59.210Z,102143.13
2023-02-15T04:57:26.835Z,102144.91
2023-02-15T04:59:54.440Z,102145.97
2023-02-15T05:02:22.075Z,102144.25
2023-02-15T05:04:49.698Z,102140.03
2023-02-15T05:07:17.471Z,102145.34
2023-02-15T05:09:45.159Z,102141.84
2023-02-15T05:12:14.082Z,102133.22
2023-02-15T05:14:41.674Z,102128.91
2023-02-15T05:17:09.265Z,102141.97
2023-02-15T05:19:36.929Z,102129.81
2023-02-15T05:22:04.610Z,102135.03
2023-02-15T05:24:50.010Z,102127.22
2023-02-15T05:27:45.062Z,102133.22
2023-02-15T05:30:14.513Z,102127.88
2023-02-15T05:32:42.377Z,102127.88
2023-02-15T05:35:10.116Z,102127.00
2023-02-15T05:37:37.682Z,102124.50
2023-02-15T05:40:05.913Z,102121.09
2023-02-15T05:42:34.923Z,102122.78
2023-02-15T05:45:04.908Z,102125.38
2023-02-15T05:47:32.534Z,102130.72
2023-02-15T05:50:00.296Z,102130.59
2023-02-15T05:52:28.304Z,102130.50
2023-02-15T05:54:56.027Z,102132.09
2023-02-15T05:57:23.611Z,102125.00
2023-02-15T05:59:52.560Z,102124.78
2023-02-15T06:02:20.321Z,102135.88
2023-02-15T06:04:48.053Z,102128.78
2023-02-15T06:07:15.691Z,102120.75
2023-02-15T06:09:43.335Z,102120.53
2023-02-15T06:12:11.118Z,102122.00
2023-02-15T06:14:38.715Z,102126.81
2023-02-15T06:17:07.686Z,102128.28
2023-02-15T06:19:35.300Z,102126.38
2023-02-15T06:22:02.997Z,102127.78
2023-02-15T06:24:30.661Z,102126.56
2023-02-15T06:26:58.241Z,102120.91
2023-02-15T06:29:26.015Z,102121.50
2023-02-15T06:31:53.880Z,102123.09
2023-02-15T06:34:22.951Z,102115.41
2023-02-15T06:36:50.534Z,102117.78
2023-02-15T06:39:18.382Z,102119.38
2023-02-15T06:41:45.985Z,102113.25
2023-02-15T06:44:13.589Z,102123.66
2023-02-15T06:46:41.312Z,102119.25
2023-02-15T06:49:08.961Z,102120.94
2023-02-15T06:51:38.028Z,102125.97
2023-02-15T06:54:05.929Z,102125.97
2023-02-15T06:56:33.525Z,102120.53
2023-02-15T06:59:01.405Z,102122.22
2023-02-15T07:01:29.022Z,102123.69
2023-02-15T07:03:56.813Z,102120.09
2023-02-15T07:06:24.477Z,102113.16
2023-02-15T07:08:54.042Z,102106.38
2023-02-15T07:11:39.417Z,102116.22
2023-02-15T07:14:07.022Z,102118.16
2023-02-15T07:16:34.649Z,102118.44
2023-02-15T07:19:02.785Z,102116.97
2023-02-15T07:21:30.474Z,102111.06
2023-02-15T07:23:59.622Z,102106.09
2023-02-15T07:26:27.317Z,102105.16
2023-02-15T07:28:54.953Z,102103.47
2023-02-15T07:31:22.597Z,102101.88
2023-02-15T07:33:50.354Z,102101.75
2023-02-15T07:36:17.929Z,102093.16
2023-02-15T07:38:45.953Z,102094.16
2023-02-15T07:41:16.612Z,102093.34
2023-02-15T07:43:46.322Z,102082.94
2023-02-15T07:46:17.395Z,102089.97
2023-02-15T07:48:45.772Z,102077.72
2023-02-15T07:51:15.095Z,102078.31
2023-02-15T07:53:43.052Z,102074.72
2023-02-15T07:56:12.764Z,102075.72
2023-02-15T07:58:54.889Z,102078.31
2023-02-15T08:01:24.595Z,102083.63
2023-02-15T08:03:52.596Z,102084.66
2023-02-15T08:06:20.945Z,102081.03
2023-02-15T08:08:48.532Z,102081.94
2023-02-15T08:11:29.875Z,102082.16
2023-02-15T08:14:01.217Z,102074.56
2023-02-15T08:16:31.722Z,102081.75
2023-02-15T08:19:00.876Z,102078.47
2023-02-15T08:21:30.113Z,102070.88
2023-02-15T08:23:58.393Z,102073.78
2023-02-15T08:26:27.578Z,102075.91
2023-02-15T08:28:55.490Z,102069.78
2023-02-15T08:31:24.705Z,102076.69
2023-02-15T08:33:54.712Z,102063.56
2023-02-15T08:36:25.778Z,102068.00
2023-02-15T08:38:53.559Z,102057.75
2023-02-15T08:41:23.679Z,102071.81
2023-02-15T08:43:54.632Z,102064.69
2023-02-15T08:46:24.713Z,102070.72
2023-02-15T08:48:52.712Z,102068.16
2023-02-15T08:51:21.846Z,102064.88
2023-02-15T08:53:51.463Z,102064.50
2023-02-15T08:56:20.570Z,102053.50
2023-02-15T08:58:48.424Z,102053.88
2023-02-15T09:01:19.102Z,102055.81
2023-02-15T09:03:50.192Z,102043.06
2023-02-15T09:06:19.126Z,102056.50
2023-02-15T09:08:46.715Z,102046.28
2023-02-15T09:11:23.716Z,102049.09
2023-02-15T09:13:53.786Z,102051.72
2023-02-15T09:16:22.217Z,102052.59
2023-02-15T09:18:51.972Z,102043.06
2023-02-15T09:21:21.729Z,102047.59
2023-02-15T09:23:50.917Z,102049.69
2023-02-15T09:26:20.212Z,102045.47
2023-02-15T09:28:49.412Z,102046.69
2023-02-15T09:31:19.501Z,102043.19
2023-02-15T09:33:49.481Z,102044.59
2023-02-15T09:36:21.026Z,102037.75
2023-02-15T09:38:49.242Z,102042.44
2023-02-15T09:41:34.946Z,102029.03
2023-02-15T09:44:16.221Z,102032.00
2023-02-15T09:47:00.180Z,102032.13
2023-02-15T09:49:38.171Z,102039.72
2023-02-15T09:52:33.412Z,102030.91
2023-02-15T09:55:13.135Z,102026.09
2023-02-15T09:57:49.676Z,102033.59
2023-02-15T10:00:30.778Z,102027.22
2023-02-15T10:03:13.957Z,102022.19
2023-02-15T10:05:54.787Z,102029.34
2023-02-15T10:08:53.067Z,102019.38
2023-02-15T10:11:42.791Z,102017.34
2023-02-15T10:14:41.136Z,102025.63
2023-02-15T10:17:21.863Z,102032.94
2023-02-15T10:20:00.043Z,102027.41
2023-02-15T10:22:39.784Z,102032.38
2023-02-15T10:25:22.014Z,102034.63
2023-02-15T10:27:51.721Z,102030.50
2023-02-15T10:30:27.976Z,102031.69
2023-02-15T10:33:01.800Z,102030.59
2023-02-15T10:35:39.345Z,102018.97
2023-02-15T10:38:22.087Z,102021.31
2023-02-15T10:41:06.371Z,102026.38
2023-02-15T10:43:47.388Z,102018.25
2023-02-15T10:46:33.725Z,102015.06
2023-02-15T10:49:25.948Z,102006.88
2023-02-15T10:52:09.218Z,102002.84
2023-02-15T10:54:46.648Z,102002.56
2023-02-15T10:57:20.065Z,101994.25
2023-02-15T11:00:10.389Z,101997.28
2023-02-15T11:02:50.723Z,101993.38
2023-02-15T11:05:29.487Z,101985.97
2023-02-15T11:08:01.377Z,101990.53
2023-02-15T11:10:36.023Z,101995.28
2023-02-15T11:13:10.891Z,101995.72
2023-02-15T11:15:43.191Z,101987.44
2023-02-15T11:18:17.003Z,101989.66
2023-02-15T11:20:53.501Z,101986.53
2023-02-15T11:23:22.749Z,101979.91
2023-02-15T11:25:59.489Z,101980.38
2023-02-15T11:28:33.241Z,101980.94
2023-02-15T11:31:13.879Z,101968.00
2023-02-15T11:33:47.254Z,101967.66
2023-02-15T11:36:19.658Z,101957.88
2023-02-15T11:38:51.027Z,101950.75
2023-02-15T11:41:22.280Z,101950.66
2023-02-15T11:43:57.488Z,101953.69
2023-02-15T11:46:25.277Z,101953.69
2023-02-15T11:48:52.937Z,101951.50
2023-02-15T11:51:24.215Z,101935.88
2023-02-15T11:53:52.436Z,101931.91
2023-02-15T11:56:23.544Z,101932.34
2023-02-15T11:58:57.541Z,101933.63
2023-02-15T12:01:31.631Z,101923.53
2023-02-15T12:04:03.859Z,101922.94
2023-02-15T12:06:35.234Z,101915.31
2023-02-15T12:09:09.407Z,101922.56
2023-02-15T12:11:38.969Z,101907.69
2023-02-15T12:14:09.196Z,101905.13
2023-02-15T12:16:44.400Z,101903.38
2023-02-15T12:19:26.593Z,101899.00
2023-02-15T12:21:55.035Z,101899.81
2023-02-15T12:24:25.154Z,101894.44
2023-02-15T12:27:01.780Z,101895.03
2023-02-15T12:29:36.519Z,101892.22
2023-02-15T12:32:05.914Z,101896.59
2023-02-15T12:34:40.487Z,101893.91
2023-02-15T12:37:12.669Z,101887.75
2023-02-15T12:39:54.131Z,101889.41
2023-02-15T12:42:22.712Z,101878.59
2023-02-15T12:45:02.984Z,101865.72
2023-02-15T12:47:32.195Z,101858.84
2023-02-15T12:50:12.613Z,101872.25
2023-02-15T12:52:41.013Z,101869.16
2023-02-15T12:55:22.654Z,101856.25
2023-02-15T12:57:51.536Z,101852.25
2023-02-15T13:00:32.931Z,101848.00
2023-02-15T13:03:02.760Z,101850.09
2023-02-15T13:05:35.914Z,101852.28
2023-02-15T13:08:06.114Z,101854.41
2023-02-15T13:10:48.911Z,101851.81
2023-02-15T13:13:22.818Z,101851.88
2023-02-15T13:15:54.153Z,101845.00
2023-02-15T13:18:30.846Z,101847.97
2023-02-15T13:20:58.745Z,101849.91
2023-02-15T13:23:29.529Z,101845.69
2023-02-15T13:25:59.289Z,101847.75
2023-02-15T13:28:34.684Z,101830.28
2023-02-15T13:31:04.053Z,101839.41
2023-02-15T13:33:35.373Z,101831.66
2023-02-15T13:36:09.820Z,101832.63
2023-02-15T13:38:57.613Z,101824.75
2023-02-15T13:41:33.096Z,101823.94
2023-02-15T13:44:13.519Z,101818.72
2023-02-15T13:46:54.397Z,101820.59
2023-02-15T13:49:37.156Z,101810.00
2023-02-15T13:52:17.391Z,101811.78
2023-02-15T13:54:55.520Z,101805.56
2023-02-15T13:57:37.373Z,101809.16
2023-02-15T14:00:19.040Z,101806.50
2023-02-15T14:03:16.774Z,101804.03
2023-02-15T14:05:57.704Z,101800.50
2023-02-15T14:08:41.300Z,101804.09
2023-02-15T14:11:18.004Z,101802.34
2023-02-15T14:13:56.367Z,101805.09
2023-02-15T14:16:35.473Z,101790.94
2023-02-15T14:19:16.059Z,101791.03
2023-02-15T14:21:49.219Z,101780.38
2023-02-15T14:24:28.269Z,101783.91
2023-02-15T14:27:07.551Z,101781.19
2023-02-15T14:29:48.474Z,101772.22
2023-02-15T14:32:22.597Z,101773.13
2023-02-15T14:34:54.907Z,101776.69
2023-02-15T14:37:33.339Z,101768.78
2023-02-15T14:40:23.330Z,101767.03
2023-02-15T14:42:57.885Z,101772.38
2023-02-15T14:45:34.327Z,101765.34
2023-02-15T14:48:11.092Z,101769.81
2023-02-15T14:50:45.737Z,101763.59
2023-02-15T14:53:39.187Z,101770.69
2023-02-15T14:56:22.513Z,101768.91
2023-02-15T14:59:02.336Z,101776.03
2023-02-15T15:01:32.413Z,101783.19
2023-02-15T15:04:04.302Z,101785.88
2023-02-15T15:06:35.394Z,101793.88
2023-02-15T15:09:13.860Z,101784.97
2023-02-15T15:11:47.393Z,101787.63
2023-02-15T15:14:41.597Z,101774.31
2023-02-15T15:17:13.428Z,101779.69
2023-02-15T15:20:08.371Z,101772.56
2023-02-15T15:22:38.383Z,101778.75
2023-02-15T15:25:12.001Z,101786.72
2023-02-15T15:27:58.730Z,101784.00
2023-02-15T15:30:55.512Z,101781.28
2023-02-15T15:33:48.612Z,101777.69
2023-02-15T15:36:42.647Z,101770.50
2023-02-15T15:39:26.088Z,101765.94
2023-02-15T15:42:03.036Z,101756.94
2023-02-15T15:45:04.937Z,101757.69
2023-02-15T15:48:06.656Z,101756.59
2023-02-15T15:50:36.038Z,101758.16
2023-02-15T15:53:05.235Z,101752.63
2023-02-15T15:55:36.477Z,101755.03
2023-02-15T15:58:07.685Z,101755.69
2023-02-15T16:00:39.321Z,101751.91
2023-02-15T16:03:07.185Z,101748.06
2023-02-15T16:05:39.427Z,101754.00
2023-02-15T16:08:07.921Z,101749.28
2023-02-15T16:10:38.935Z,101746.38
2023-02-15T16:13:07.942Z,101751.38
2023-02-15T16:15:43.988Z,101753.75
2023-02-15T16:18:17.160Z,101760.44
2023-02-15T16:20:52.820Z,101758.38
2023-02-15T16:23:40.174Z,101761.53
2023-02-15T16:26:14.730Z,101767.31
2023-02-15T16:28:49.977Z,101757.19
2023-02-15T16:31:18.628Z,101766.56
2023-02-15T16:33:47.656Z,101760.91
2023-02-15T16:36:23.650Z,101761.38
2023-02-15T16:39:19.067Z,101767.06
2023-02-15T16:41:50.127Z,101766.63
2023-02-15T16:44:21.330Z,101756.53
2023-02-15T16:46:51.813Z,101758.78
2023-02-15T16:49:22.029Z,101757.44
2023-02-15T16:51:57.936Z,101760.56
2023-02-15T16:54:27.471Z,101755.75
2023-02-15T16:56:56.843Z,101752.72
2023-02-15T16:59:33.717Z,101757.59
2023-02-15T17:02:02.275Z,101760.63
2023-02-15T17:04:33.228Z,101760.25
2023-02-15T17:07:05.775Z,101759.84
2023-02-15T17:09:34.819Z,101760.34
2023-02-15T17:12:04.017Z,101758.16
2023-02-15T17:14:33.041Z,101760.34
2023-02-15T17:17:03.722Z,101768.75
2023-02-15T17:19:33.963Z,101772.69
2023-02-15T17:22:07.244Z,101763.56
2023-02-15T17:24:39.039Z,101766.72
2023-02-15T17:27:16.776Z,101767.25
2023-02-15T17:29:48.106Z,101766.00
2023-02-15T17:32:20.014Z,101763.94
2023-02-15T17:35:11.199Z,101771.38
2023-02-15T17:37:47.152Z,101757.00
2023-02-15T17:40:24.180Z,101765.44
2023-02-15T17:42:53.406Z,101764.13
2023-02-15T17:45:22.115Z,101766.44
2023-02-15T17:47:50.794Z,101762.53
2023-02-15T17:50:22.503Z,101760.53
2023-02-15T17:52:50.935Z,101764.56
2023-02-15T17:55:39.054Z,101762.47
2023-02-15T17:58:10.623Z,101758.53
2023-02-15T18:00:59.151Z,101752.97
2023-02-15T18:03:49.862Z,101752.59
2023-02-15T18:06:35.038Z,101758.44
2023-02-15T18:09:20.421Z,101754.53
2023-02-15T18:11:50.609Z,101755.94
2023-02-15T18:14:19.583Z,101757.44
2023-02-15T18:16:47.368Z,101756.28
2023-02-15T18:19:18.531Z,101751.53
2023-02-15T18:21:47.375Z,101759.91
2023-02-15T18:24:19.785Z,101749.97
2023-02-15T18:26:47.536Z,101752.28
2023-02-15T18:29:15.205Z,101748.41
2023-02-15T18:31:46.893Z,101754.25
2023-02-15T18:34:23.608Z,101749.47
2023-02-15T18:36:51.844Z,101750.94
2023-02-15T18:39:30.550Z,101748.84
2023-02-15T18:41:58.861Z,101752.03
2023-02-15T18:44:27.272Z,101744.78
2023-02-15T18:46:56.254Z,101747.13
2023-02-15T18:49:23.936Z,101740.69
2023-02-15T18:51:51.773Z,101735.09
2023-02-15T18:54:22.326Z,101735.72
2023-02-15T18:56:55.008Z,101738.06
2023-02-15T18:59:23.478Z,101730.81
2023-02-15T19:01:51.582Z,101733.06
2023-02-15T19:04:20.898Z,101727.59
2023-02-15T19:06:50.063Z,101719.47
2023-02-15T19:09:20.650Z,101718.25
2023-02-15T19:11:51.243Z,101724.19
2023-02-15T19:14:26.423Z,101726.53
2023-02-15T19:16:54.337Z,101730.63
2023-02-15T19:19:24.270Z,101726.91
2023-02-15T19:21:52.763Z,101729.28
2023-02-15T19:24:25.103Z,101715.00
2023-02-15T19:26:53.593Z,101714.84
2023-02-15T19:29:26.453Z,101719.88
2023-02-15T19:31:55.375Z,101710.72
2023-02-15T19:34:24.564Z,101711.19
2023-02-15T19:36:54.384Z,101716.09
2023-02-15T19:39:28.863Z,101717.59
2023-02-15T19:41:56.949Z,101712.16
2023-02-15T19:44:24.592Z,101705.81
2023-02-15T19:46:52.258Z,101711.66
2023-02-15T19:49:19.880Z,101702.75
2023-02-15T19:51:49.228Z,101700.91
2023-02-15T19:54:35.284Z,101704.16
2023-02-15T19:57:02.914Z,101706.53
2023-02-15T19:59:32.819Z,101700.34
2023-02-15T20:02:00.705Z,101691.44
2023-02-15T20:04:28.462Z,101698.22
2023-02-15T20:07:00.746Z,101688.44
2023-02-15T20:09:31.966Z,101686.38
2023-02-15T20:11:59.589Z,101692.28
2023-02-15T20:14:27.165Z,101688.63
2023-02-15T20:16:54.752Z,101683.16
2023-02-15T20:19:22.322Z,101687.31
2023-02-15T20:21:52.115Z,101683.66
2023-02-15T20:24:22.828Z,101681.84
2023-02-15T20:26:50.512Z,101679.97
2023-02-15T20:29:19.829Z,101685.84
2023-02-15T20:31:47.480Z,101678.75
2023-02-15T20:34:15.226Z,101683.75
2023-02-15T20:36:43.073Z,101694.03
2023-02-15T20:39:16.348Z,101690.44
2023-02-15T20:41:48.187Z,101693.81
2023-02-15T20:44:19.409Z,101690.09
2023-02-15T20:46:47.127Z,101693.56
2023-02-15T20:49:14.824Z,101696.88
2023-02-15T20:51:44.460Z,101692.50
2023-02-15T20:54:14.861Z,101700.25
2023-02-15T20:56:43.316Z,101688.81
2023-02-15T20:59:26.335Z,101689.38
2023-02-15T21:01:58.436Z,101682.19
2023-02-15T21:04:31.237Z,101694.19
2023-02-15T21:06:59.012Z,101692.28
2023-02-15T21:09:26.657Z,101694.78
2023-02-15T21:11:56.828Z,101699.00
2023-02-15T21:14:29.265Z,101687.38
2023-02-15T21:16:56.867Z,101694.25
2023-02-15T21:19:25.276Z,101684.63
2023-02-15T21:21:54.133Z,101691.53
2023-02-15T21:24:24.632Z,101687.16
2023-02-15T21:26:52.946Z,101683.72
2023-02-15T21:29:23.021Z,101676.63
2023-02-15T21:31:52.069Z,101672.69
2023-02-15T21:34:19.897Z,101667.19
2023-02-15T21:36:50.600Z,101667.94
2023-02-15T21:39:22.061Z,101661.56
2023-02-15T21:42:09.224Z,101659.56
2023-02-15T21:44:54.581Z,101657.78
2023-02-15T21:47:41.985Z,101655.72
2023-02-15T21:50:31.062Z,101655.56
2023-02-15T21:52:59.413Z,101660.72
2023-02-15T21:55:27.338Z,101651.06
2023-02-15T21:57:54.985Z,101650.16
2023-02-15T22:00:25.448Z,101650.16
2023-02-15T22:02:56.228Z,101651.72
2023-02-15T22:05:26.781Z,101647.13
2023-02-15T22:07:54.372Z,101652.25
2023-02-15T22:10:22.909Z,101651.28
2023-02-15T22:12:52.454Z,101640.72
2023-02-15T22:15:22.789Z,101645.97
2023-02-15T22:17:51.053Z,101652.00
2023-02-15T22:20:22.613Z,101655.50
2023-02-15T22:22:51.798Z,101652.00
2023-02-15T22:25:21.791Z,101656.31
2023-02-15T22:27:51.200Z,101652.00
2023-02-15T22:30:26.302Z,101658.91
2023-02-15T22:32:54.784Z,101653.59
2023-02-15T22:35:26.226Z,101657.94
2023-02-15T22:37:53.856Z,101653.59
2023-02-15T22:40:22.421Z,101661.44
2023-02-15T22:42:53.720Z,101660.56
2023-02-15T22:45:25.108Z,101658.78
2023-02-15T22:47:55.177Z,101661.38
2023-02-15T22:50:26.136Z,101658.69
2023-02-15T22:52:55.049Z,101662.00
2023-02-15T22:55:26.006Z,101668.94
2023-02-15T22:57:56.010Z,101657.44
2023-02-15T23:00:26.428Z,101650.31
2023-02-15T23:02:54.576Z,101661.59
2023-02-15T23:05:28.654Z,101655.34
2023-02-15T23:07:57.040Z,101665.72
2023-02-15T23:10:26.822Z,101659.34
2023-02-15T23:13:14.182Z,101659.25
2023-02-15T23:15:43.165Z,101665.19
2023-02-15T23:18:20.298Z,101667.00
2023-02-15T23:20:51.776Z,101671.22
2023-02-15T23:23:23.656Z,101669.44
2023-02-15T23:25:51.236Z,101673.66
2023-02-15T23:28:22.577Z,101671.84
2023-02-15T23:30:50.693Z,101674.38
2023-02-15T23:33:21.043Z,101673.56
2023-02-15T23:35:51.210Z,101672.66
2023-02-15T23:38:20.837Z,101674.38
2023-02-15T23:41:11.327Z,101672.66
2023-02-15T23:43:41.933Z,101662.16
2023-02-15T23:46:09.738Z,101659.53
2023-02-15T23:48:39.381Z,101658.72
2023-02-15T23:51:11.710Z,101663.03
2023-02-15T23:53:39.419Z,101655.91
2023-02-15T23:56:07.689Z,101654.94
2023-02-15T23:58:38.720Z,101652.22
